createdAt,value
2016-08-07T00:03:18.414Z,15.42
2016-08-07T00:05:17.812Z,15.39
2016-08-07T00:06:22.200Z,15.42
2016-08-07T00:07:14.014Z,15.41
2016-08-07T00:12:23.496Z,15.37
2016-08-07T00:13:16.587Z,15.37
2016-08-07T00:14:21.960Z,15.36
2016-08-07T00:15:25.255Z,15.37
2016-08-07T00:16:19.998Z,15.37
2016-08-07T00:17:17.655Z,15.33
2016-08-07T00:18:17.794Z,15.31
2016-08-07T00:19:22.462Z,15.29
2016-08-07T00:22:22.240Z,15.23
2016-08-07T00:23:14.093Z,15.17
2016-08-07T00:24:20.331Z,15.23
2016-08-07T00:25:16.917Z,15.21
2016-08-07T00:26:22.756Z,15.21
2016-08-07T00:27:16.953Z,15.21
2016-08-07T00:28:18.771Z,15.20
2016-08-07T00:30:21.161Z,15.26
2016-08-07T00:32:14.081Z,15.20
2016-08-07T00:33:18.315Z,15.18
2016-08-07T00:35:17.350Z,15.18
2016-08-07T00:38:17.088Z,15.18
2016-08-07T00:39:16.554Z,15.17
2016-08-07T00:40:17.809Z,15.19
2016-08-07T00:45:17.500Z,15.11
2016-08-07T00:46:17.389Z,15.07
2016-08-07T00:47:16.668Z,15.05
2016-08-07T00:49:36.070Z,15.06
2016-08-07T00:52:24.373Z,15.05
2016-08-07T00:54:14.156Z,15.01
2016-08-07T00:57:20.259Z,14.97
2016-08-07T00:58:15.649Z,14.97
2016-08-07T00:59:13.626Z,14.92
2016-08-07T01:03:21.845Z,14.85
2016-08-07T01:04:19.653Z,14.84
2016-08-07T01:05:22.884Z,14.89
2016-08-07T01:07:21.239Z,14.99
2016-08-07T01:08:18.281Z,15.00
2016-08-07T01:09:17.147Z,15.02
2016-08-07T01:10:19.084Z,15.06
2016-08-07T01:12:21.613Z,15.03
2016-08-07T01:13:17.407Z,14.98
2016-08-07T01:15:17.258Z,14.89
2016-08-07T01:16:23.282Z,14.89
2016-08-07T01:17:17.257Z,14.85
2016-08-07T01:18:22.462Z,14.82
2016-08-07T01:19:17.146Z,14.79
2016-08-07T01:20:39.996Z,14.80
2016-08-07T01:21:16.726Z,14.77
2016-08-07T01:22:19.014Z,14.79
2016-08-07T01:23:16.796Z,14.75
2016-08-07T01:24:22.089Z,14.69
2016-08-07T01:25:20.372Z,14.76
2016-08-07T01:27:18.806Z,14.83
2016-08-07T01:29:16.050Z,14.75
2016-08-07T01:32:16.179Z,14.71
2016-08-07T01:33:22.882Z,14.76
2016-08-07T01:34:13.189Z,14.72
2016-08-07T01:35:23.779Z,14.69
2016-08-07T01:36:23.500Z,14.64
2016-08-07T01:37:16.566Z,14.61
2016-08-07T01:38:18.620Z,14.59
2016-08-07T01:39:16.801Z,14.55
2016-08-07T01:40:18.519Z,14.59
2016-08-07T01:42:21.966Z,14.58
2016-08-07T01:43:16.747Z,14.55
2016-08-07T01:45:22.623Z,14.60
2016-08-07T01:46:23.136Z,14.56
2016-08-07T01:48:17.421Z,14.50
2016-08-07T01:49:16.693Z,14.53
2016-08-07T01:50:20.221Z,14.60
2016-08-07T01:53:17.605Z,14.63
2016-08-07T01:54:15.486Z,14.60
2016-08-07T01:56:28.017Z,14.58
2016-08-07T01:57:19.619Z,14.59
2016-08-07T01:58:21.468Z,14.61
2016-08-07T01:59:17.607Z,14.57
2016-08-07T02:00:11.665Z,14.54
2016-08-07T02:02:26.482Z,14.55
2016-08-07T02:03:21.976Z,14.45
2016-08-07T02:10:22.638Z,14.53
2016-08-07T02:25:17.943Z,14.34
2016-08-07T02:29:34.567Z,14.26
2016-08-07T02:32:16.799Z,14.24
2016-08-07T02:37:15.326Z,14.21
2016-08-07T02:38:20.856Z,14.13
2016-08-07T02:39:21.649Z,14.19
2016-08-07T02:42:16.982Z,14.13
2016-08-07T02:43:27.357Z,14.14
2016-08-07T02:44:21.297Z,14.12
2016-08-07T02:45:22.549Z,14.12
2016-08-07T02:46:15.881Z,14.08
2016-08-07T02:47:20.982Z,14.05
2016-08-07T02:49:21.991Z,14.10
2016-08-07T02:50:21.607Z,14.08
2016-08-07T02:52:20.707Z,14.07
2016-08-07T02:53:17.284Z,14.08
2016-08-07T02:55:18.169Z,14.07
2016-08-07T02:56:18.290Z,14.03
2016-08-07T02:57:18.565Z,13.99
2016-08-07T02:58:22.154Z,13.94
2016-08-07T03:00:21.094Z,13.87
2016-08-07T03:02:14.985Z,13.83
2016-08-07T03:04:17.000Z,13.91
2016-08-07T03:05:21.063Z,13.87
2016-08-07T03:06:33.963Z,13.86
2016-08-07T03:08:18.416Z,13.91
2016-08-07T03:09:23.301Z,13.91
2016-08-07T03:10:20.571Z,13.88
2016-08-07T03:12:16.888Z,13.88
2016-08-07T03:13:17.303Z,13.80
2016-08-07T03:14:17.386Z,13.87
2016-08-07T03:15:15.756Z,13.92
2016-08-07T03:16:15.677Z,13.95
2016-08-07T03:17:23.383Z,13.89
2016-08-07T03:18:27.627Z,13.89
2016-08-07T03:19:16.977Z,13.84
2016-08-07T03:20:21.178Z,13.78
2016-08-07T03:22:12.278Z,13.70
2016-08-07T03:23:16.411Z,13.69
2016-08-07T03:24:16.032Z,13.70
2016-08-07T03:25:22.532Z,13.72
2016-08-07T03:26:12.211Z,13.72
2016-08-07T03:27:17.990Z,13.69
2016-08-07T03:28:14.121Z,13.72
2016-08-07T03:29:18.698Z,13.68
2016-08-07T03:30:14.016Z,13.68
2016-08-07T03:32:27.805Z,13.70
2016-08-07T03:33:18.612Z,13.65
2016-08-07T03:34:27.673Z,13.60
2016-08-07T03:36:17.074Z,13.65
2016-08-07T03:37:20.996Z,13.56
2016-08-07T03:38:20.966Z,13.63
2016-08-07T03:39:21.923Z,13.61
2016-08-07T03:40:16.451Z,13.60
2016-08-07T03:42:17.504Z,13.58
2016-08-07T03:43:26.602Z,13.59
2016-08-07T03:44:18.561Z,13.57
2016-08-07T03:45:26.617Z,13.54
2016-08-07T03:47:22.808Z,13.50
2016-08-07T03:48:17.275Z,13.42
2016-08-07T03:49:16.769Z,13.46
2016-08-07T03:50:17.441Z,13.47
2016-08-07T03:52:23.333Z,13.43
2016-08-07T03:53:22.638Z,13.44
2016-08-07T03:54:22.172Z,13.45
2016-08-07T03:56:21.993Z,13.42
2016-08-07T03:57:18.541Z,13.39
2016-08-07T03:58:22.625Z,13.37
2016-08-07T03:59:18.158Z,13.37
2016-08-07T04:00:15.286Z,13.36
2016-08-07T04:02:16.724Z,13.48
2016-08-07T04:03:17.185Z,13.44
2016-08-07T04:04:17.307Z,13.41
2016-08-07T04:05:19.711Z,13.35
2016-08-07T04:06:20.824Z,13.35
2016-08-07T04:07:21.951Z,13.34
2016-08-07T04:08:26.272Z,13.39
2016-08-07T04:09:22.779Z,13.41
2016-08-07T04:10:22.771Z,13.39
2016-08-07T04:12:18.657Z,13.38
2016-08-07T04:13:17.656Z,13.36
2016-08-07T04:14:17.216Z,13.41
2016-08-07T04:15:28.472Z,13.40
2016-08-07T04:16:17.703Z,13.36
2016-08-07T04:17:18.503Z,13.35
2016-08-07T04:18:15.157Z,13.38
2016-08-07T04:19:16.382Z,13.33
2016-08-07T04:20:22.570Z,13.28
2016-08-07T04:22:19.695Z,13.40
2016-08-07T04:23:18.394Z,13.41
2016-08-07T04:25:33.468Z,13.42
2016-08-07T04:26:27.862Z,13.40
2016-08-07T04:27:17.194Z,13.38
2016-08-07T04:28:12.759Z,13.36
2016-08-07T04:29:22.293Z,13.36
2016-08-07T04:30:21.793Z,13.36
2016-08-07T04:31:17.560Z,13.29
2016-08-07T04:32:22.549Z,13.34
2016-08-07T04:33:21.995Z,13.33
2016-08-07T04:34:23.375Z,13.35
2016-08-07T04:35:21.956Z,13.34
2016-08-07T04:36:16.967Z,13.38
2016-08-07T04:37:18.883Z,13.38
2016-08-07T04:38:21.105Z,13.38
2016-08-07T04:39:23.195Z,13.35
2016-08-07T04:42:15.916Z,13.44
2016-08-07T04:43:18.023Z,13.42
2016-08-07T04:46:26.320Z,13.40
2016-08-07T04:47:13.187Z,13.39
2016-08-07T04:48:17.843Z,13.40
2016-08-07T04:49:23.385Z,13.49
2016-08-07T04:52:25.992Z,13.62
2016-08-07T04:53:19.995Z,13.63
2016-08-07T04:54:22.006Z,13.60
2016-08-07T04:55:17.261Z,13.64
2016-08-07T04:57:19.498Z,13.74
2016-08-07T04:58:19.588Z,13.69
2016-08-07T04:59:17.306Z,13.77
2016-08-07T05:00:16.070Z,13.80
2016-08-07T05:02:17.961Z,13.77
2016-08-07T05:03:22.028Z,13.76
2016-08-07T05:05:21.819Z,13.77
2016-08-07T05:06:22.943Z,13.82
2016-08-07T05:07:20.786Z,13.88
2016-08-07T05:08:16.642Z,13.93
2016-08-07T05:09:27.492Z,13.93
2016-08-07T05:10:14.866Z,13.96
2016-08-07T05:11:21.041Z,13.95
2016-08-07T05:12:27.477Z,13.90
2016-08-07T05:13:22.466Z,13.88
2016-08-07T05:14:25.728Z,13.92
2016-08-07T05:15:21.064Z,13.90
2016-08-07T05:16:26.544Z,13.94
2016-08-07T05:17:25.995Z,13.97
2016-08-07T05:18:19.147Z,14.00
2016-08-07T05:19:18.267Z,14.04
2016-08-07T05:20:21.183Z,14.09
2016-08-07T05:22:18.321Z,14.10
2016-08-07T05:23:26.213Z,14.12
2016-08-07T05:24:18.092Z,14.17
2016-08-07T05:25:16.616Z,14.19
2016-08-07T05:26:22.570Z,14.29
2016-08-07T05:27:16.800Z,14.27
2016-08-07T05:28:24.392Z,14.28
2016-08-07T05:30:22.488Z,14.30
2016-08-07T05:32:17.125Z,14.28
2016-08-07T05:33:27.245Z,14.27
2016-08-07T05:34:19.433Z,14.36
2016-08-07T05:35:21.620Z,14.34
2016-08-07T05:36:22.984Z,14.39
2016-08-07T05:38:21.207Z,14.43
2016-08-07T05:39:26.672Z,14.48
2016-08-07T05:40:18.520Z,14.51
2016-08-07T05:42:23.210Z,14.57
2016-08-07T05:43:17.660Z,14.63
2016-08-07T05:44:17.287Z,14.65
2016-08-07T05:45:16.444Z,14.63
2016-08-07T05:47:21.514Z,14.67
2016-08-07T05:48:18.925Z,14.70
2016-08-07T05:49:21.517Z,14.78
2016-08-07T05:50:17.651Z,14.79
2016-08-07T05:53:17.831Z,14.87
2016-08-07T05:54:23.432Z,14.90
2016-08-07T05:55:17.863Z,14.95
2016-08-07T05:56:22.513Z,15.01
2016-08-07T05:57:21.762Z,15.07
2016-08-07T05:59:21.834Z,15.04
2016-08-07T06:00:17.893Z,15.07
2016-08-07T06:03:16.296Z,15.17
2016-08-07T06:05:17.811Z,15.31
2016-08-07T06:06:17.160Z,15.31
2016-08-07T06:08:20.438Z,15.36
2016-08-07T06:09:15.799Z,15.32
2016-08-07T06:10:20.087Z,15.39
2016-08-07T06:13:20.580Z,15.45
2016-08-07T06:14:22.545Z,15.52
2016-08-07T06:15:18.309Z,15.56
2016-08-07T06:16:17.469Z,15.59
2016-08-07T06:18:18.496Z,15.65
2016-08-07T06:19:21.245Z,15.68
2016-08-07T06:21:13.411Z,15.72
2016-08-07T06:22:18.575Z,15.74
2016-08-07T06:25:20.055Z,15.90
2016-08-07T06:26:15.004Z,15.92
2016-08-07T06:27:21.793Z,16.00
2016-08-07T06:29:22.273Z,16.11
2016-08-07T06:30:19.224Z,16.14
2016-08-07T06:31:12.079Z,16.18
2016-08-07T06:32:26.726Z,16.19
2016-08-07T06:33:26.705Z,16.19
2016-08-07T06:34:17.352Z,16.27
2016-08-07T06:38:20.673Z,16.33
2016-08-07T06:39:17.918Z,16.35
2016-08-07T06:40:18.968Z,16.35
2016-08-07T06:42:17.155Z,16.37
2016-08-07T06:43:18.995Z,16.41
2016-08-07T06:44:12.672Z,16.45
2016-08-07T06:46:19.163Z,16.51
2016-08-07T06:47:21.252Z,16.54
2016-08-07T06:48:15.505Z,16.56
2016-08-07T06:49:21.661Z,16.57
2016-08-07T06:50:18.382Z,16.62
2016-08-07T06:51:13.446Z,16.60
2016-08-07T06:52:12.544Z,16.61
2016-08-07T06:53:13.205Z,16.61
2016-08-07T06:54:21.057Z,16.68
2016-08-07T06:55:20.586Z,16.65
2016-08-07T06:57:12.690Z,16.72
2016-08-07T06:59:12.560Z,16.70
2016-08-07T07:00:20.622Z,16.70
2016-08-07T07:07:13.533Z,16.87
2016-08-07T07:08:15.659Z,16.88
2016-08-07T07:09:18.829Z,16.91
2016-08-07T07:10:19.954Z,16.91
2016-08-07T07:11:12.200Z,16.95
2016-08-07T07:13:21.336Z,16.97
2016-08-07T07:16:22.312Z,17.10
2016-08-07T07:17:12.600Z,17.16
2016-08-07T07:18:16.874Z,17.16
2016-08-07T07:19:27.394Z,17.24
2016-08-07T07:20:37.198Z,17.19
2016-08-07T07:21:29.404Z,17.20
2016-08-07T07:22:19.979Z,17.21
2016-08-07T07:23:21.479Z,17.23
2016-08-07T07:24:20.152Z,17.23
2016-08-07T07:25:19.029Z,17.29
2016-08-07T07:27:12.942Z,17.31
2016-08-07T07:28:12.848Z,17.39
2016-08-07T07:29:18.881Z,17.36
2016-08-07T07:30:16.684Z,17.35
2016-08-07T07:31:12.058Z,17.44
2016-08-07T07:32:22.358Z,17.39
2016-08-07T07:33:22.694Z,17.39
2016-08-07T07:34:12.160Z,17.51
2016-08-07T07:35:12.128Z,17.44
2016-08-07T07:36:12.254Z,17.41
2016-08-07T07:38:22.488Z,17.40
2016-08-07T07:39:23.168Z,17.49
2016-08-07T07:40:19.624Z,17.55
2016-08-07T07:41:18.014Z,17.59
2016-08-07T07:42:16.939Z,17.67
2016-08-07T07:43:21.074Z,17.70
2016-08-07T07:45:12.179Z,17.68
2016-08-07T07:46:26.408Z,17.69
2016-08-07T07:47:19.788Z,17.67
2016-08-07T08:02:13.132Z,18.01
2016-08-07T08:03:22.709Z,18.00
2016-08-07T08:04:18.493Z,18.10
2016-08-07T08:06:17.862Z,18.08
2016-08-07T08:07:12.843Z,18.11
2016-08-07T08:08:25.450Z,18.08
2016-08-07T08:09:24.635Z,18.08
2016-08-07T08:10:28.082Z,18.18
2016-08-07T08:11:18.390Z,18.23
2016-08-07T08:13:54.349Z,18.35
2016-08-07T08:14:15.782Z,18.33
2016-08-07T08:15:12.829Z,18.29
2016-08-07T08:16:12.375Z,18.28
2016-08-07T08:18:21.289Z,18.26
2016-08-07T08:20:20.428Z,18.30
2016-08-07T08:22:12.266Z,18.35
2016-08-07T08:23:12.887Z,18.38
2016-08-07T08:24:17.059Z,18.45
2016-08-07T08:25:17.945Z,18.45
2016-08-07T08:26:19.024Z,18.50
2016-08-07T08:27:20.264Z,18.51
2016-08-07T08:28:18.512Z,18.47
2016-08-07T08:29:23.518Z,18.45
2016-08-07T08:31:13.409Z,18.49
2016-08-07T08:33:25.008Z,18.47
2016-08-07T08:39:24.307Z,18.50
2016-08-07T08:40:17.379Z,18.49
2016-08-07T08:41:11.555Z,18.57
2016-08-07T08:42:12.784Z,18.62
2016-08-07T08:43:20.439Z,18.71
2016-08-07T08:44:22.349Z,18.78
2016-08-07T08:45:22.363Z,18.87
2016-08-07T08:47:18.465Z,19.01
2016-08-07T08:48:31.909Z,19.07
2016-08-07T08:49:22.580Z,19.08
2016-08-07T08:55:16.957Z,18.86
2016-08-07T08:56:23.307Z,18.83
2016-08-07T08:58:26.905Z,18.81
2016-08-07T09:05:14.368Z,19.21
2016-08-07T09:07:23.277Z,19.34
2016-08-07T09:08:17.988Z,19.36
2016-08-07T09:10:20.849Z,19.37
2016-08-07T09:15:12.329Z,19.20
2016-08-07T09:16:19.132Z,19.13
2016-08-07T09:18:19.684Z,19.04
2016-08-07T09:19:19.408Z,19.00
2016-08-07T09:21:28.372Z,18.93
2016-08-07T09:22:21.591Z,18.90
2016-08-07T09:23:23.985Z,18.89
2016-08-07T09:24:22.797Z,18.87
2016-08-07T09:25:12.938Z,18.91
2016-08-07T09:36:23.535Z,18.85
2016-08-07T09:43:12.065Z,19.20
2016-08-07T09:45:20.217Z,19.34
2016-08-07T09:49:23.510Z,19.22
2016-08-07T09:54:12.506Z,19.39
2016-08-07T09:55:16.987Z,19.45
2016-08-07T09:59:16.482Z,19.22
2016-08-07T10:09:17.213Z,19.29
2016-08-07T10:10:28.338Z,19.39
2016-08-07T10:11:12.261Z,19.44
2016-08-07T10:13:12.410Z,19.62
2016-08-07T10:14:12.270Z,19.66
2016-08-07T10:15:12.370Z,19.64
2016-08-07T10:16:17.241Z,19.63
2016-08-07T10:17:18.197Z,19.63
2016-08-07T10:18:19.259Z,19.71
2016-08-07T10:19:22.595Z,19.74
2016-08-07T10:20:21.190Z,19.79
2016-08-07T10:21:21.724Z,19.78
2016-08-07T10:22:28.249Z,19.74
2016-08-07T10:24:18.018Z,19.80
2016-08-07T10:25:12.447Z,19.80
2016-08-07T10:26:19.524Z,19.76
2016-08-07T10:27:12.790Z,19.78
2016-08-07T10:28:17.481Z,19.78
2016-08-07T10:29:12.525Z,19.80
2016-08-07T10:30:17.601Z,19.78
2016-08-07T10:31:25.776Z,19.82
2016-08-07T10:32:17.941Z,19.86
2016-08-07T10:33:17.383Z,19.89
2016-08-07T10:34:17.186Z,19.92
2016-08-07T10:35:11.996Z,20.09
2016-08-07T10:36:20.503Z,20.14
2016-08-07T10:37:12.300Z,20.14
2016-08-07T10:40:13.226Z,20.16
2016-08-07T10:41:19.003Z,20.23
2016-08-07T10:42:12.514Z,20.30
2016-08-07T10:43:17.532Z,20.47
2016-08-07T10:44:13.002Z,20.40
2016-08-07T10:45:22.748Z,20.33
2016-08-07T10:46:11.953Z,20.21
2016-08-07T10:48:22.435Z,19.97
2016-08-07T10:49:17.456Z,19.95
2016-08-07T10:50:23.158Z,19.97
2016-08-07T10:51:13.178Z,19.94
2016-08-07T10:52:12.090Z,19.97
2016-08-07T10:53:12.336Z,19.92
2016-08-07T10:55:22.878Z,19.87
2016-08-07T10:56:23.712Z,19.85
2016-08-07T10:57:18.798Z,19.88
2016-08-07T10:58:22.802Z,19.86
2016-08-07T10:59:12.531Z,19.85
2016-08-07T11:00:12.568Z,19.78
2016-08-07T11:01:12.517Z,19.72
2016-08-07T11:02:11.804Z,19.72
2016-08-07T11:03:19.082Z,19.68
2016-08-07T11:04:18.648Z,19.66
2016-08-07T11:05:12.078Z,19.65
2016-08-07T11:06:11.665Z,19.67
2016-08-07T11:07:12.215Z,19.63
2016-08-07T11:08:23.125Z,19.64
2016-08-07T11:09:17.965Z,19.66
2016-08-07T11:10:12.013Z,19.72
2016-08-07T11:11:22.659Z,19.81
2016-08-07T11:12:11.734Z,19.82
2016-08-07T11:13:16.895Z,19.84
2016-08-07T11:14:22.679Z,19.86
2016-08-07T11:15:25.866Z,19.84
2016-08-07T11:16:27.488Z,19.92
2016-08-07T11:17:18.740Z,19.93
2016-08-07T11:18:18.320Z,19.92
2016-08-07T11:19:12.748Z,19.97
2016-08-07T11:20:17.273Z,19.96
2016-08-07T11:21:17.663Z,19.94
2016-08-07T11:22:23.903Z,19.91
2016-08-07T11:23:17.469Z,19.85
2016-08-07T11:24:12.159Z,19.84
2016-08-07T11:25:22.452Z,19.86
2016-08-07T11:26:23.418Z,19.83
2016-08-07T11:27:22.450Z,19.88
2016-08-07T11:28:17.791Z,19.93
2016-08-07T11:29:11.704Z,19.98
2016-08-07T11:30:27.957Z,19.99
2016-08-07T11:31:16.802Z,20.03
2016-08-07T11:32:12.405Z,20.07
2016-08-07T11:33:12.185Z,20.08
2016-08-07T11:34:17.663Z,20.08
2016-08-07T11:35:17.600Z,20.17
2016-08-07T11:36:12.326Z,20.34
2016-08-07T11:37:22.995Z,20.51
2016-08-07T11:38:28.189Z,20.60
2016-08-07T11:39:28.623Z,20.61
2016-08-07T11:40:17.452Z,20.59
2016-08-07T11:41:12.333Z,20.61
2016-08-07T11:45:17.768Z,20.98
2016-08-07T11:47:14.135Z,21.07
2016-08-07T11:48:12.977Z,21.16
2016-08-07T11:49:13.297Z,21.08
2016-08-07T11:50:12.592Z,20.99
2016-08-07T11:51:23.270Z,21.01
2016-08-07T11:55:18.487Z,21.04
2016-08-07T11:58:17.341Z,21.09
2016-08-07T12:00:26.796Z,21.33
2016-08-07T12:01:17.610Z,21.31
2016-08-07T12:02:17.964Z,21.41
2016-08-07T12:03:12.172Z,21.52
2016-08-07T12:04:38.991Z,21.47
2016-08-07T12:06:22.939Z,21.31
2016-08-07T12:07:17.693Z,21.25
2016-08-07T12:09:27.498Z,21.24
2016-08-07T12:10:17.974Z,21.33
2016-08-07T12:11:23.003Z,21.55
2016-08-07T12:12:12.092Z,21.66
2016-08-07T12:13:17.821Z,21.62
2016-08-07T12:14:14.914Z,21.85
2016-08-07T12:15:17.152Z,21.84
2016-08-07T12:16:17.671Z,21.83
2016-08-07T12:17:17.316Z,21.84
2016-08-07T12:18:18.109Z,21.86
2016-08-07T12:19:22.239Z,21.92
2016-08-07T12:20:28.114Z,21.90
2016-08-07T12:21:17.735Z,21.85
2016-08-07T12:22:28.392Z,21.79
2016-08-07T12:23:19.369Z,21.86
2016-08-07T12:24:21.460Z,21.78
2016-08-07T12:25:24.734Z,21.78
2016-08-07T12:26:17.339Z,21.89
2016-08-07T12:27:13.042Z,21.95
2016-08-07T12:28:13.435Z,21.91
2016-08-07T12:30:17.382Z,21.98
2016-08-07T12:31:17.765Z,22.15
2016-08-07T12:34:17.868Z,22.08
2016-08-07T12:35:19.169Z,22.11
2016-08-07T12:36:28.283Z,22.13
2016-08-07T12:37:17.312Z,22.13
2016-08-07T12:38:14.637Z,22.11
2016-08-07T12:39:17.765Z,22.10
2016-08-07T12:40:17.364Z,22.19
2016-08-07T12:41:23.278Z,22.21
2016-08-07T12:42:24.000Z,22.30
2016-08-07T12:43:11.983Z,22.41
2016-08-07T12:44:11.797Z,22.42
2016-08-07T12:45:14.467Z,22.25
2016-08-07T12:46:26.735Z,22.14
2016-08-07T12:47:22.849Z,22.06
2016-08-07T12:48:11.677Z,22.02
2016-08-07T12:49:23.239Z,21.95
2016-08-07T12:50:22.651Z,21.84
2016-08-07T12:51:17.187Z,21.77
2016-08-07T12:52:12.776Z,21.73
2016-08-07T12:53:13.415Z,21.78
2016-08-07T12:55:11.780Z,21.72
2016-08-07T12:56:18.384Z,21.70
2016-08-07T12:57:17.681Z,21.64
2016-08-07T12:58:23.011Z,21.78
2016-08-07T12:59:16.963Z,21.85
2016-08-07T13:00:23.395Z,21.91
2016-08-07T13:01:11.722Z,21.98
2016-08-07T13:03:11.843Z,22.26
2016-08-07T13:04:18.241Z,22.31
2016-08-07T13:05:18.553Z,22.17
2016-08-07T13:06:17.843Z,22.11
2016-08-07T13:07:19.459Z,22.09
2016-08-07T13:08:12.285Z,22.08
2016-08-07T13:11:23.397Z,22.03
2016-08-07T13:12:18.833Z,21.99
2016-08-07T13:13:25.325Z,21.91
2016-08-07T13:14:23.999Z,21.87
2016-08-07T13:15:08.535Z,21.82
2016-08-07T13:17:17.818Z,21.77
2016-08-07T13:19:17.944Z,22.03
2016-08-07T13:20:17.044Z,22.20
2016-08-07T13:23:12.694Z,22.35
2016-08-07T13:24:12.543Z,22.28
2016-08-07T13:26:12.385Z,22.18
2016-08-07T13:27:16.255Z,22.11
2016-08-07T13:29:24.383Z,21.95
2016-08-07T13:30:23.263Z,21.93
2016-08-07T13:31:11.900Z,21.93
2016-08-07T13:32:20.885Z,21.93
2016-08-07T13:33:17.924Z,21.91
2016-08-07T13:34:12.626Z,21.87
2016-08-07T13:36:25.038Z,21.79
2016-08-07T13:37:19.405Z,21.76
2016-08-07T13:38:23.468Z,21.73
2016-08-07T13:41:15.741Z,21.78
2016-08-07T13:42:12.424Z,21.86
2016-08-07T13:43:14.753Z,22.32
2016-08-07T13:44:18.920Z,22.83
2016-08-07T13:47:12.829Z,23.03
2016-08-07T13:49:18.380Z,22.74
2016-08-07T13:50:18.344Z,22.81
2016-08-07T13:51:31.777Z,23.12
2016-08-07T13:52:12.231Z,23.06
2016-08-07T13:53:16.359Z,23.05
2016-08-07T13:54:18.054Z,23.47
2016-08-07T13:55:12.957Z,23.77
2016-08-07T13:57:23.381Z,23.39
2016-08-07T13:58:18.617Z,23.12
2016-08-07T13:59:46.201Z,22.92
2016-08-07T14:00:19.747Z,22.78
2016-08-07T14:01:12.527Z,22.81
2016-08-07T14:02:18.193Z,23.01
2016-08-07T14:03:12.596Z,23.19
2016-08-07T14:04:17.622Z,22.86
2016-08-07T14:05:22.747Z,22.86
2016-08-07T14:06:18.358Z,23.32
2016-08-07T14:07:26.261Z,23.73
2016-08-07T14:08:13.545Z,23.98
2016-08-07T14:11:17.828Z,24.70
2016-08-07T14:12:28.334Z,24.85
2016-08-07T14:13:30.901Z,24.80
2016-08-07T14:14:17.353Z,24.77
2016-08-07T14:15:12.304Z,24.82
2016-08-07T14:16:18.137Z,24.84
2016-08-07T14:17:18.261Z,24.80
2016-08-07T14:18:18.032Z,24.66
2016-08-07T14:19:20.089Z,24.55
2016-08-07T14:20:21.287Z,24.57
2016-08-07T14:21:17.303Z,24.59
2016-08-07T14:22:17.345Z,24.60
2016-08-07T14:23:16.862Z,24.46
2016-08-07T14:24:16.668Z,24.34
2016-08-07T14:25:12.257Z,24.26
2016-08-07T14:26:12.395Z,24.15
2016-08-07T14:27:18.107Z,24.03
2016-08-07T14:28:11.773Z,23.90
2016-08-07T14:29:12.282Z,23.89
2016-08-07T14:30:30.347Z,23.75
2016-08-07T14:31:18.837Z,23.59
2016-08-07T14:34:18.239Z,23.47
2016-08-07T14:35:19.602Z,23.44
2016-08-07T14:36:14.609Z,23.37
2016-08-07T14:37:18.875Z,23.31
2016-08-07T14:38:17.867Z,23.25
2016-08-07T14:39:28.482Z,23.27
2016-08-07T14:40:11.543Z,23.28
2016-08-07T14:42:22.602Z,23.33
2016-08-07T14:43:17.896Z,23.37
2016-08-07T14:44:12.359Z,23.40
2016-08-07T14:45:18.989Z,23.40
2016-08-07T14:46:17.959Z,23.41
2016-08-07T14:47:17.709Z,23.37
2016-08-07T14:48:12.276Z,23.40
2016-08-07T14:49:11.650Z,23.41
2016-08-07T14:50:13.214Z,23.39
2016-08-07T14:52:12.550Z,23.39
2016-08-07T14:53:13.163Z,23.38
2016-08-07T14:54:18.273Z,23.33
2016-08-07T14:55:13.653Z,23.37
2016-08-07T14:56:12.988Z,23.41
2016-08-07T14:57:12.004Z,23.47
2016-08-07T14:58:12.314Z,23.52
2016-08-07T14:59:13.366Z,23.46
2016-08-07T15:00:30.122Z,23.56
2016-08-07T15:01:17.332Z,23.61
2016-08-07T15:02:17.919Z,23.61
2016-08-07T15:03:11.978Z,23.62
2016-08-07T15:04:13.982Z,23.67
2016-08-07T15:05:18.677Z,23.75
2016-08-07T15:06:12.193Z,23.76
2016-08-07T15:07:17.997Z,23.65
2016-08-07T15:08:12.345Z,23.71
2016-08-07T15:09:18.251Z,23.78
2016-08-07T15:10:28.552Z,23.86
2016-08-07T15:11:12.595Z,23.98
2016-08-07T15:12:17.471Z,24.11
2016-08-07T15:13:24.237Z,24.18
2016-08-07T15:14:18.007Z,24.23
2016-08-07T15:15:18.001Z,24.22
2016-08-07T15:16:17.997Z,24.33
2016-08-07T15:17:17.984Z,24.44
2016-08-07T15:18:17.250Z,24.63
2016-08-07T15:19:17.829Z,24.80
2016-08-07T15:20:12.777Z,24.89
2016-08-07T15:21:17.215Z,25.17
2016-08-07T15:22:11.952Z,25.37
2016-08-07T15:23:17.002Z,25.62
2016-08-07T15:24:23.148Z,25.78
2016-08-07T15:25:17.496Z,26.06
2016-08-07T15:26:16.935Z,26.07
2016-08-07T15:27:18.335Z,25.90
2016-08-07T15:28:17.691Z,26.30
2016-08-07T15:29:13.561Z,26.59
2016-08-07T15:30:12.598Z,26.76
2016-08-07T15:31:12.542Z,27.05
2016-08-07T15:32:17.613Z,27.23
2016-08-07T15:33:12.430Z,27.35
2016-08-07T15:34:17.862Z,27.46
2016-08-07T15:35:14.159Z,27.55
2016-08-07T15:36:12.482Z,27.75
2016-08-07T15:37:17.329Z,27.62
2016-08-07T15:38:12.628Z,27.00
2016-08-07T15:39:12.177Z,26.13
2016-08-07T15:40:17.396Z,25.38
2016-08-07T15:41:17.417Z,25.49
2016-08-07T15:42:12.376Z,26.02
2016-08-07T15:43:17.470Z,26.56
2016-08-07T15:44:12.259Z,26.97
2016-08-07T15:45:09.453Z,27.00
2016-08-07T15:46:15.939Z,26.90
2016-08-07T15:47:17.119Z,26.11
2016-08-07T15:48:12.439Z,25.53
2016-08-07T15:49:11.894Z,25.27
2016-08-07T15:50:12.523Z,25.15
2016-08-07T15:51:12.325Z,25.33
2016-08-07T15:52:12.009Z,26.09
2016-08-07T15:53:12.237Z,26.70
2016-08-07T15:54:13.598Z,27.26
2016-08-07T15:55:08.105Z,27.63
2016-08-07T15:56:11.943Z,27.73
2016-08-07T15:57:13.496Z,27.92
2016-08-07T15:58:11.635Z,28.02
2016-08-07T15:59:12.154Z,28.09
2016-08-07T16:00:17.921Z,28.15
2016-08-07T16:01:17.123Z,28.32
2016-08-07T16:02:16.956Z,28.31
2016-08-07T16:03:14.271Z,28.36
2016-08-07T16:04:11.691Z,28.42
2016-08-07T16:05:11.896Z,28.58
2016-08-07T16:06:12.240Z,28.45
2016-08-07T16:07:11.539Z,28.53
2016-08-07T16:08:14.433Z,28.68
2016-08-07T16:09:18.077Z,28.57
2016-08-07T16:10:17.507Z,28.45
2016-08-07T16:11:12.267Z,28.52
2016-08-07T16:12:17.300Z,28.44
2016-08-07T16:13:17.287Z,28.43
2016-08-07T16:14:12.594Z,28.54
2016-08-07T16:15:11.960Z,28.60
2016-08-07T16:16:12.167Z,28.52
2016-08-07T16:17:15.858Z,28.36
2016-08-07T16:18:12.881Z,28.50
2016-08-07T16:19:12.262Z,28.54
2016-08-07T16:20:18.805Z,28.66
2016-08-07T16:21:14.280Z,28.72
2016-08-07T16:22:23.069Z,28.78
2016-08-07T16:23:17.749Z,28.85
2016-08-07T16:24:13.155Z,28.59
2016-08-07T16:25:18.279Z,28.47
2016-08-07T16:26:17.308Z,28.74
2016-08-07T16:27:19.400Z,28.63
2016-08-07T16:28:20.617Z,28.58
2016-08-07T16:29:12.351Z,28.64
2016-08-07T16:30:16.088Z,28.75
2016-08-07T16:31:22.451Z,28.58
2016-08-07T16:32:18.377Z,28.53
2016-08-07T16:33:18.430Z,28.76
2016-08-07T16:34:11.962Z,28.71
2016-08-07T16:35:22.985Z,28.74
2016-08-07T16:36:13.554Z,28.63
2016-08-07T16:37:11.712Z,28.47
2016-08-07T16:38:13.246Z,28.63
2016-08-07T16:39:18.721Z,28.65
2016-08-07T16:40:12.371Z,28.30
2016-08-07T16:41:17.832Z,28.27
2016-08-07T16:42:12.345Z,28.20
2016-08-07T16:43:17.721Z,28.01
2016-08-07T16:44:12.194Z,27.95
2016-08-07T16:45:11.616Z,27.94
2016-08-07T16:46:12.237Z,27.86
2016-08-07T16:47:12.720Z,27.66
2016-08-07T16:48:12.156Z,27.65
2016-08-07T16:49:12.228Z,27.72
2016-08-07T16:50:17.833Z,27.38
2016-08-07T16:51:12.168Z,27.05
2016-08-07T16:52:22.991Z,26.53
2016-08-07T16:53:17.895Z,26.08
2016-08-07T16:54:12.609Z,26.03
2016-08-07T16:56:12.631Z,25.63
2016-08-07T16:57:18.296Z,25.37
2016-08-07T16:58:17.517Z,25.22
2016-08-07T16:59:25.858Z,25.03
2016-08-07T17:00:12.545Z,24.94
2016-08-07T17:01:19.448Z,24.85
2016-08-07T17:02:14.807Z,24.80
2016-08-07T17:03:18.025Z,24.86
2016-08-07T17:04:16.907Z,24.88
2016-08-07T17:05:19.978Z,24.66
2016-08-07T17:06:12.842Z,24.54
2016-08-07T17:07:18.688Z,24.50
2016-08-07T17:08:12.925Z,24.48
2016-08-07T17:09:12.189Z,24.30
2016-08-07T17:10:27.350Z,24.19
2016-08-07T17:11:17.379Z,24.11
2016-08-07T17:12:19.363Z,24.04
2016-08-07T17:13:12.080Z,23.98
2016-08-07T17:14:23.225Z,23.86
2016-08-07T17:15:13.476Z,23.85
2016-08-07T17:16:25.504Z,23.88
2016-08-07T17:17:18.018Z,23.86
2016-08-07T17:18:22.891Z,23.73
2016-08-07T17:19:13.013Z,23.74
2016-08-07T17:20:19.377Z,23.66